Main page
METAR-TAF:

Airports :

Budapest, Hungary

Budapest Ferenc Liszt International Airport

latitude: 47-26N, longitude: 019-16E, elevation: 151 m

Current weather observation

The report was made 34 minutes ago, at 07:30 UTC
Wind 3 kt from variable directions
Temperature 28°C
Humidity 45%
Pressure 1017 hPa
Visibility 10 km or more
no clouds below 1500 m and no cumulonimbus

METAR: LHBP 010730Z VRB03KT CAVOK 28/15 Q1017 NOSIG

Time: 10:04 (08:04 UTC)

Forecast

The report was made 3 hours and 4 minutes ago, at 05:00 UTC
Forecast valid from 01 at 06 UTC to 02 at 06 UTC
Wind 3 kt from variable directions
Visibility 10 km or more
no clouds below 1500 m and no cumulonimbus
Probability 30% :
Temporary
from 01 at 16 UTC to 01 at 22 UTC
Few clouds at a height of 3500 ft, Cumulonimbus.
Scattered clouds at a height of 4300 ft
light rain showers

TAF: LHBP 010500Z 0106/0206 VRB03KT CAVOK PROB30 TEMPO 0116/0122 -SHRA FEW035CB SCT043

METAR-TAF

Weather observations and forecasts of more than 4000 airports (METAR and TAF reports).

The available stations are represented by yellow and red dots on the map.

Hover mouse over dot to see the name of the station.

Then click to see weather observations and forecasts.

To change the map : click on the green buttons with a black cross to zoom in, on the green button with a dash to zoom out, or on the green arrows for adjacent maps.


METAR-TAF: